createdAt,value
2023-02-08T00:00:05.914Z,93.11
2023-02-08T00:01:05.936Z,93.22
2023-02-08T00:02:05.901Z,93.22
2023-02-08T00:03:05.888Z,93.43
2023-02-08T00:04:05.916Z,93.01
2023-02-08T00:05:05.894Z,92.90
2023-02-08T00:06:05.920Z,93.22
2023-02-08T00:07:05.863Z,92.90
2023-02-08T00:08:05.873Z,93.11
2023-02-08T00:09:05.854Z,93.54
2023-02-08T00:10:05.865Z,93.43
2023-02-08T00:11:05.883Z,93.11
2023-02-08T00:12:05.825Z,93.11
2023-02-08T00:13:05.823Z,92.90
2023-02-08T00:14:05.817Z,93.11
2023-02-08T00:15:05.805Z,93.11
2023-02-08T00:16:05.866Z,92.90
2023-02-08T00:17:05.785Z,93.26
2023-02-08T00:18:05.780Z,93.32
2023-02-08T00:19:05.776Z,93.15
2023-02-08T00:20:05.769Z,93.37
2023-02-08T00:21:05.793Z,93.57
2023-02-08T00:22:05.751Z,94.38
2023-02-08T00:23:05.749Z,94.00
2023-02-08T00:24:05.748Z,94.00
2023-02-08T00:25:05.732Z,94.00
2023-02-08T00:26:05.780Z,94.06
2023-02-08T00:27:05.722Z,93.89
2023-02-08T00:28:08.382Z,94.21
2023-02-08T00:29:05.703Z,93.89
2023-02-08T00:30:05.716Z,94.00
2023-02-08T00:31:05.804Z,93.47
2023-02-08T00:32:05.714Z,93.37
2023-02-08T00:33:05.676Z,93.37
2023-02-08T00:34:05.662Z,93.93
2023-02-08T00:35:05.656Z,93.57
2023-02-08T00:36:05.673Z,93.79
2023-02-08T00:37:05.683Z,93.57
2023-02-08T00:38:05.633Z,93.79
2023-02-08T00:39:05.637Z,93.47
2023-02-08T00:40:05.630Z,93.57
2023-02-08T00:41:05.643Z,93.37
2023-02-08T00:42:05.602Z,93.26
2023-02-08T00:43:05.612Z,93.37
2023-02-08T00:44:05.596Z,93.47
2023-02-08T00:45:05.588Z,93.26
2023-02-08T00:46:05.629Z,93.15
2023-02-08T00:47:05.571Z,93.15
2023-02-08T00:48:05.584Z,93.26
2023-02-08T00:49:05.575Z,93.15
2023-02-08T00:50:05.564Z,93.26
2023-02-08T00:51:05.582Z,93.41
2023-02-08T00:52:05.549Z,93.15
2023-02-08T00:53:05.536Z,93.26
2023-02-08T00:54:05.529Z,93.09
2023-02-08T00:55:05.525Z,92.99
2023-02-08T00:56:05.574Z,93.19
2023-02-08T00:57:05.502Z,93.19
2023-02-08T00:58:05.496Z,93.19
2023-02-08T00:59:05.638Z,93.41
2023-02-08T01:00:05.511Z,93.19
2023-02-08T01:01:05.530Z,93.30
2023-02-08T01:02:05.494Z,93.30
2023-02-08T01:03:05.463Z,93.30
2023-02-08T01:04:05.455Z,94.25
2023-02-08T01:05:05.463Z,94.04
2023-02-08T01:06:05.468Z,93.51
2023-02-08T01:07:05.432Z,94.15
2023-02-08T01:08:05.526Z,93.68
2023-02-08T01:09:05.451Z,93.62
2023-02-08T01:10:05.412Z,93.73
2023-02-08T01:11:05.436Z,94.15
2023-02-08T01:12:05.401Z,94.09
2023-02-08T01:13:06.418Z,93.93
2023-02-08T01:14:05.443Z,93.83
2023-02-08T01:15:05.372Z,93.73
2023-02-08T01:16:05.368Z,93.83
2023-02-08T01:17:05.392Z,93.83
2023-02-08T01:18:05.537Z,93.77
2023-02-08T01:19:05.353Z,94.09
2023-02-08T01:20:05.339Z,93.98
2023-02-08T01:21:05.332Z,93.98
2023-02-08T01:22:05.361Z,94.25
2023-02-08T01:23:05.319Z,94.46
2023-02-08T01:24:05.321Z,94.04
2023-02-08T01:25:05.315Z,94.15
2023-02-08T01:26:05.296Z,93.93
2023-02-08T01:27:05.312Z,94.29
2023-02-08T01:28:05.352Z,94.36
2023-02-08T01:29:05.267Z,94.04
2023-02-08T01:30:05.261Z,94.25
2023-02-08T01:31:05.359Z,94.04
2023-02-08T01:32:05.272Z,94.09
2023-02-08T01:33:05.242Z,93.83
2023-02-08T01:34:05.236Z,94.09
2023-02-08T01:35:05.218Z,94.25
2023-02-08T01:36:06.219Z,94.09
2023-02-08T01:37:05.234Z,93.77
2023-02-08T01:38:05.198Z,93.83
2023-02-08T01:39:05.198Z,94.29
2023-02-08T01:40:05.196Z,94.19
2023-02-08T01:41:05.180Z,94.19
2023-02-08T01:42:05.205Z,94.19
2023-02-08T01:43:05.170Z,94.19
2023-02-08T01:44:05.159Z,93.87
2023-02-08T01:45:05.169Z,94.09
2023-02-08T01:46:05.200Z,94.29
2023-02-08T01:47:05.154Z,94.29
2023-02-08T01:48:05.153Z,94.40
2023-02-08T01:49:05.129Z,93.98
2023-02-08T01:50:05.113Z,93.87
2023-02-08T01:51:05.102Z,94.55
2023-02-08T01:52:05.133Z,94.72
2023-02-08T01:53:05.096Z,94.87
2023-02-08T01:54:05.167Z,94.87
2023-02-08T01:55:05.081Z,95.71
2023-02-08T01:56:05.067Z,95.29
2023-02-08T01:57:05.088Z,95.07
2023-02-08T01:58:05.044Z,95.39
2023-02-08T01:59:06.053Z,95.18
2023-02-08T02:00:05.040Z,95.07
2023-02-08T02:01:05.061Z,95.07
2023-02-08T02:02:05.060Z,95.29
2023-02-08T02:03:05.017Z,95.39
2023-02-08T02:04:05.046Z,95.29
2023-02-08T02:05:05.016Z,95.29
2023-02-08T02:06:04.999Z,95.18
2023-02-08T02:07:05.022Z,95.29
2023-02-08T02:08:04.986Z,95.50
2023-02-08T02:09:04.972Z,95.39
2023-02-08T02:10:04.971Z,95.07
2023-02-08T02:11:04.964Z,95.39
2023-02-08T02:12:04.984Z,95.39
2023-02-08T02:13:04.978Z,95.29
2023-02-08T02:14:04.963Z,95.39
2023-02-08T02:15:04.928Z,95.82
2023-02-08T02:16:04.952Z,95.50
2023-02-08T02:17:05.251Z,95.39
2023-02-08T02:18:04.922Z,95.82
2023-02-08T02:19:04.896Z,95.92
2023-02-08T02:20:04.910Z,95.50
2023-02-08T02:21:04.884Z,95.29
2023-02-08T02:22:04.897Z,95.39
2023-02-08T02:23:04.867Z,95.50
2023-02-08T02:24:04.867Z,95.07
2023-02-08T02:25:04.858Z,94.97
2023-02-08T02:26:04.842Z,95.39
2023-02-08T02:27:04.881Z,95.71
2023-02-08T02:28:04.864Z,95.23
2023-02-08T02:29:04.839Z,95.01
2023-02-08T02:30:04.827Z,95.33
2023-02-08T02:31:04.828Z,95.39
2023-02-08T02:32:04.842Z,95.33
2023-02-08T02:33:04.800Z,95.54
2023-02-08T02:34:04.808Z,95.76
2023-02-08T02:35:04.792Z,95.65
2023-02-08T02:36:04.776Z,95.23
2023-02-08T02:37:04.772Z,95.33
2023-02-08T02:38:04.785Z,95.33
2023-02-08T02:39:04.762Z,95.39
2023-02-08T02:40:04.747Z,95.07
2023-02-08T02:41:04.745Z,95.39
2023-02-08T02:42:04.733Z,95.07
2023-02-08T02:43:04.757Z,94.55
2023-02-08T02:44:04.745Z,94.81
2023-02-08T02:45:04.935Z,95.06
2023-02-08T02:46:04.752Z,94.81
2023-02-08T02:47:04.699Z,95.23
2023-02-08T02:48:04.722Z,94.81
2023-02-08T02:49:04.731Z,94.81
2023-02-08T02:50:04.711Z,94.85
2023-02-08T02:51:04.673Z,95.17
2023-02-08T02:52:04.669Z,95.23
2023-02-08T02:53:04.695Z,95.06
2023-02-08T02:54:04.665Z,95.76
2023-02-08T02:55:04.713Z,95.44
2023-02-08T02:56:04.645Z,95.23
2023-02-08T02:57:04.637Z,95.23
2023-02-08T02:58:04.667Z,95.12
2023-02-08T02:59:04.624Z,95.23
2023-02-08T03:00:04.608Z,95.12
2023-02-08T03:01:04.672Z,95.33
2023-02-08T03:02:04.611Z,95.33
2023-02-08T03:03:04.619Z,95.44
2023-02-08T03:04:04.689Z,95.54
2023-02-08T03:05:04.595Z,95.76
2023-02-08T03:06:04.573Z,95.33
2023-02-08T03:07:04.583Z,95.48
2023-02-08T03:08:05.690Z,95.54
2023-02-08T03:09:04.550Z,95.37
2023-02-08T03:10:04.541Z,95.44
2023-02-08T03:11:04.529Z,95.65
2023-02-08T03:12:04.527Z,95.54
2023-02-08T03:13:04.549Z,95.07
2023-02-08T03:14:04.554Z,95.44
2023-02-08T03:15:04.503Z,95.23
2023-02-08T03:16:04.501Z,95.44
2023-02-08T03:17:04.655Z,95.54
2023-02-08T03:18:04.522Z,95.76
2023-02-08T03:19:04.476Z,95.33
2023-02-08T03:20:04.470Z,94.74
2023-02-08T03:21:04.466Z,95.01
2023-02-08T03:22:04.458Z,94.70
2023-02-08T03:23:04.473Z,95.06
2023-02-08T03:24:04.447Z,95.59
2023-02-08T03:25:04.504Z,95.59
2023-02-08T03:26:04.424Z,95.37
2023-02-08T03:27:04.419Z,95.59
2023-02-08T03:28:04.518Z,95.27
2023-02-08T03:29:04.416Z,95.27
2023-02-08T03:30:04.402Z,95.27
2023-02-08T03:31:04.491Z,95.17
2023-02-08T03:32:04.381Z,95.48
2023-02-08T03:33:04.396Z,95.90
2023-02-08T03:34:04.362Z,95.59
2023-02-08T03:35:04.421Z,95.59
2023-02-08T03:36:04.427Z,95.37
2023-02-08T03:37:04.355Z,95.12
2023-02-08T03:38:04.371Z,95.27
2023-02-08T03:39:04.332Z,95.37
2023-02-08T03:40:04.326Z,95.27
2023-02-08T03:41:04.318Z,95.27
2023-02-08T03:42:04.307Z,95.48
2023-02-08T03:43:04.345Z,95.48
2023-02-08T03:44:04.294Z,95.80
2023-02-08T03:45:04.296Z,95.59
2023-02-08T03:46:04.307Z,95.59
2023-02-08T03:47:04.322Z,95.69
2023-02-08T03:48:04.322Z,95.80
2023-02-08T03:49:04.261Z,95.69
2023-02-08T03:50:04.263Z,95.80
2023-02-08T03:51:04.248Z,95.80
2023-02-08T03:52:04.249Z,95.59
2023-02-08T03:53:04.239Z,95.80
2023-02-08T03:54:04.251Z,95.59
2023-02-08T03:55:04.222Z,95.80
2023-02-08T03:56:04.211Z,95.48
2023-02-08T03:57:04.212Z,95.37
2023-02-08T03:58:04.189Z,95.37
2023-02-08T03:59:04.242Z,95.48
2023-02-08T04:00:04.177Z,95.59
2023-02-08T04:01:04.260Z,95.48
2023-02-08T04:02:04.173Z,95.80
2023-02-08T04:03:04.155Z,95.37
2023-02-08T04:04:04.176Z,95.48
2023-02-08T04:05:04.152Z,95.27
2023-02-08T04:06:04.167Z,95.37
2023-02-08T04:07:04.137Z,95.37
2023-02-08T04:08:04.128Z,95.37
2023-02-08T04:09:04.177Z,95.37
2023-02-08T04:10:04.105Z,95.48
2023-02-08T04:11:04.103Z,95.80
2023-02-08T04:12:04.101Z,95.37
2023-02-08T04:13:04.084Z,95.59
2023-02-08T04:14:04.107Z,95.37
2023-02-08T04:15:04.071Z,95.48
2023-02-08T04:16:04.103Z,95.59
2023-02-08T04:17:04.055Z,95.73
2023-02-08T04:18:04.062Z,95.84
2023-02-08T04:19:04.082Z,96.05
2023-02-08T04:20:04.035Z,95.90
2023-02-08T04:21:04.030Z,96.26
2023-02-08T04:22:04.016Z,96.26
2023-02-08T04:23:04.026Z,96.05
2023-02-08T04:24:04.027Z,95.69
2023-02-08T04:25:03.992Z,95.84
2023-02-08T04:26:04.006Z,95.53
2023-02-08T04:27:05.908Z,96.05
2023-02-08T04:28:05.040Z,95.73
2023-02-08T04:29:03.989Z,96.05
2023-02-08T04:30:03.962Z,95.95
2023-02-08T04:31:04.951Z,95.84
2023-02-08T04:32:03.942Z,96.20
2023-02-08T04:33:03.964Z,95.95
2023-02-08T04:34:03.965Z,96.26
2023-02-08T04:35:03.938Z,95.95
2023-02-08T04:36:03.936Z,95.99
2023-02-08T04:37:03.915Z,96.42
2023-02-08T04:38:03.899Z,96.37
2023-02-08T04:39:03.929Z,96.16
2023-02-08T04:40:04.120Z,95.84
2023-02-08T04:41:03.883Z,96.37
2023-02-08T04:42:03.877Z,96.26
2023-02-08T04:43:04.876Z,96.16
2023-02-08T04:44:03.899Z,95.95
2023-02-08T04:45:03.850Z,96.26
2023-02-08T04:46:03.880Z,96.05
2023-02-08T04:47:03.846Z,96.16
2023-02-08T04:48:03.833Z,96.05
2023-02-08T04:49:03.895Z,96.05
2023-02-08T04:50:03.827Z,95.73
2023-02-08T04:51:03.817Z,95.73
2023-02-08T04:52:03.811Z,95.95
2023-02-08T04:53:03.808Z,95.73
2023-02-08T04:54:03.837Z,95.95
2023-02-08T04:55:03.787Z,95.73
2023-02-08T04:56:03.794Z,95.37
2023-02-08T04:57:03.769Z,95.42
2023-02-08T04:58:03.793Z,95.53
2023-02-08T04:59:03.789Z,95.27
2023-02-08T05:00:04.746Z,95.37
2023-02-08T05:01:03.737Z,95.17
2023-02-08T05:02:03.789Z,95.42
2023-02-08T05:03:03.901Z,95.00
2023-02-08T05:04:03.755Z,94.89
2023-02-08T05:06:37.040Z,94.89
2023-02-08T05:07:36.744Z,95.95
2023-02-08T05:08:36.737Z,94.93
2023-02-08T05:09:37.089Z,95.00
2023-02-08T05:10:36.716Z,94.89
2023-02-08T05:11:36.713Z,95.14
2023-02-08T05:12:36.709Z,95.00
2023-02-08T05:13:36.699Z,95.10
2023-02-08T05:14:37.072Z,95.78
2023-02-08T05:15:36.890Z,95.14
2023-02-08T05:16:36.677Z,95.84
2023-02-08T05:17:36.670Z,95.99
2023-02-08T05:18:36.659Z,95.36
2023-02-08T05:19:36.685Z,96.25
2023-02-08T05:20:36.652Z,96.42
2023-02-08T05:21:36.641Z,96.56
2023-02-08T05:22:36.629Z,96.52
2023-02-08T05:23:36.645Z,96.31
2023-02-08T05:24:36.641Z,96.42
2023-02-08T05:25:36.607Z,96.20
2023-02-08T05:26:36.601Z,96.31
2023-02-08T05:27:36.604Z,95.89
2023-02-08T05:28:36.606Z,95.99
2023-02-08T05:29:36.609Z,96.52
2023-02-08T05:30:36.573Z,96.42
2023-02-08T05:31:36.679Z,96.20
2023-02-08T05:32:36.557Z,96.31
2023-02-08T05:33:36.563Z,96.31
2023-02-08T05:34:37.724Z,95.78
2023-02-08T05:35:37.665Z,96.31
2023-02-08T05:36:37.691Z,96.31
2023-02-08T05:37:37.665Z,96.09
2023-02-08T05:38:37.677Z,96.09
2023-02-08T05:39:37.668Z,95.95
2023-02-08T05:40:37.633Z,95.99
2023-02-08T05:41:37.653Z,95.57
2023-02-08T05:42:37.637Z,95.67
2023-02-08T05:43:37.610Z,95.57
2023-02-08T05:44:37.641Z,95.25
2023-02-08T05:45:37.599Z,95.57
2023-02-08T05:46:38.447Z,95.46
2023-02-08T05:47:38.580Z,95.46
2023-02-08T05:48:37.599Z,95.25
2023-02-08T05:49:37.669Z,95.40
2023-02-08T05:50:37.633Z,95.46
2023-02-08T05:51:37.555Z,95.72
2023-02-08T05:52:37.541Z,95.29
2023-02-08T05:53:37.537Z,95.40
2023-02-08T05:54:37.566Z,95.50
2023-02-08T05:55:37.546Z,95.61
2023-02-08T05:56:37.561Z,95.50
2023-02-08T05:57:37.523Z,95.61
2023-02-08T05:58:37.503Z,95.29
2023-02-08T05:59:37.532Z,95.67
2023-02-08T06:00:37.494Z,95.93
2023-02-08T06:01:37.482Z,95.82
2023-02-08T06:02:37.593Z,95.72
2023-02-08T06:03:37.468Z,95.61
2023-02-08T06:04:39.097Z,95.61
2023-02-08T06:05:38.456Z,95.82
2023-02-08T06:06:37.459Z,95.72
2023-02-08T06:07:37.439Z,95.78
2023-02-08T06:08:37.432Z,95.40
2023-02-08T06:09:37.428Z,95.57
2023-02-08T06:10:37.444Z,95.50
2023-02-08T06:11:37.405Z,95.29
2023-02-08T06:12:37.407Z,95.46
2023-02-08T06:13:37.388Z,95.29
2023-02-08T06:14:37.411Z,95.72
2023-02-08T06:15:37.387Z,95.61
2023-02-08T06:16:37.424Z,95.72
2023-02-08T06:17:37.363Z,95.72
2023-02-08T06:18:37.387Z,96.03
2023-02-08T06:19:37.342Z,95.50
2023-02-08T06:20:37.369Z,95.61
2023-02-08T06:21:37.327Z,95.93
2023-02-08T06:22:37.319Z,96.14
2023-02-08T06:23:37.313Z,96.20
2023-02-08T06:24:37.374Z,96.14
2023-02-08T06:25:37.301Z,95.82
2023-02-08T06:26:37.300Z,95.99
2023-02-08T06:27:37.294Z,95.61
2023-02-08T06:28:37.277Z,95.50
2023-02-08T06:29:37.266Z,95.72
2023-02-08T06:30:37.284Z,95.61
2023-02-08T06:31:37.314Z,95.29
2023-02-08T06:32:37.322Z,95.72
2023-02-08T06:33:37.261Z,96.14
2023-02-08T06:34:37.232Z,95.99
2023-02-08T06:35:37.268Z,96.09
2023-02-08T06:36:37.219Z,96.20
2023-02-08T06:37:37.218Z,95.99
2023-02-08T06:38:37.204Z,95.78
2023-02-08T06:39:37.197Z,95.78
2023-02-08T06:40:37.225Z,95.78
2023-02-08T06:41:37.189Z,95.78
2023-02-08T06:42:37.175Z,95.89
2023-02-08T06:43:37.166Z,95.99
2023-02-08T06:44:37.166Z,96.42
2023-02-08T06:45:37.188Z,95.89
2023-02-08T06:46:37.182Z,96.26
2023-02-08T06:47:37.144Z,96.09
2023-02-08T06:48:37.265Z,95.89
2023-02-08T06:49:37.124Z,95.99
2023-02-08T06:50:37.145Z,95.89
2023-02-08T06:51:37.111Z,95.78
2023-02-08T06:52:37.108Z,95.36
2023-02-08T06:53:37.097Z,95.46
2023-02-08T06:54:37.098Z,95.46
2023-02-08T06:55:37.120Z,95.57
2023-02-08T06:56:37.086Z,95.46
2023-02-08T06:57:37.078Z,95.57
2023-02-08T06:58:37.060Z,95.36
2023-02-08T06:59:37.076Z,95.36
2023-02-08T07:00:37.070Z,95.99
2023-02-08T07:01:37.042Z,95.29
2023-02-08T07:02:37.114Z,95.82
2023-02-08T07:03:37.029Z,95.93
2023-02-08T07:04:37.042Z,95.18
2023-02-08T07:05:37.056Z,95.72
2023-02-08T07:06:37.013Z,95.40
2023-02-08T07:07:37.028Z,95.61
2023-02-08T07:08:37.001Z,95.82
2023-02-08T07:09:36.993Z,95.08
2023-02-08T07:10:37.031Z,95.18
2023-02-08T07:11:37.010Z,95.72
2023-02-08T07:12:36.966Z,94.98
2023-02-08T07:13:36.957Z,94.98
2023-02-08T07:14:36.958Z,94.87
2023-02-08T07:15:36.970Z,95.02
2023-02-08T07:16:37.091Z,95.93
2023-02-08T07:17:36.962Z,95.29
2023-02-08T07:18:36.930Z,95.29
2023-02-08T07:19:36.933Z,95.40
2023-02-08T07:20:36.935Z,95.61
2023-02-08T07:21:36.905Z,95.50
2023-02-08T07:22:36.893Z,95.61
2023-02-08T07:23:36.883Z,95.50
2023-02-08T07:24:36.888Z,95.50
2023-02-08T07:25:36.898Z,95.72
2023-02-08T07:26:36.878Z,95.50
2023-02-08T07:27:36.877Z,95.57
2023-02-08T07:28:36.853Z,95.04
2023-02-08T07:29:36.866Z,95.04
2023-02-08T07:30:36.920Z,95.00
2023-02-08T07:31:36.888Z,94.46
2023-02-08T07:32:36.829Z,94.36
2023-02-08T07:33:36.812Z,94.57
2023-02-08T07:34:36.818Z,94.36
2023-02-08T07:35:36.832Z,94.25
2023-02-08T07:36:36.801Z,93.83
2023-02-08T07:37:36.803Z,94.36
2023-02-08T07:38:36.780Z,93.93
2023-02-08T07:39:36.877Z,94.15
2023-02-08T07:40:36.792Z,94.10
2023-02-08T07:41:36.760Z,94.10
2023-02-08T07:42:36.753Z,94.10
2023-02-08T07:43:36.749Z,93.85
2023-02-08T07:44:36.740Z,93.70
2023-02-08T07:45:37.761Z,94.02
2023-02-08T07:46:36.768Z,94.45
2023-02-08T07:47:36.748Z,94.29
2023-02-08T07:48:39.151Z,92.82
2023-02-08T07:49:36.702Z,92.22
2023-02-08T07:50:36.726Z,92.11
2023-02-08T07:51:36.688Z,92.96
2023-02-08T07:52:36.686Z,93.24
2023-02-08T07:53:36.688Z,92.60
2023-02-08T07:54:36.703Z,92.18
2023-02-08T07:55:36.686Z,92.07
2023-02-08T07:56:36.658Z,91.80
2023-02-08T07:57:36.668Z,91.97
2023-02-08T07:58:36.662Z,91.82
2023-02-08T07:59:36.650Z,91.93
2023-02-08T08:00:36.666Z,91.93
2023-02-08T08:01:36.663Z,91.61
2023-02-08T08:02:36.623Z,91.50
2023-02-08T08:03:36.652Z,91.46
2023-02-08T08:04:36.599Z,90.66
2023-02-08T08:05:36.621Z,91.19
2023-02-08T08:06:36.596Z,91.61
2023-02-08T08:07:36.586Z,92.03
2023-02-08T08:08:36.579Z,91.82
2023-02-08T08:09:36.571Z,91.82
2023-02-08T08:10:36.592Z,92.14
2023-02-08T08:11:36.556Z,92.10
2023-02-08T08:12:36.556Z,91.78
2023-02-08T08:13:36.551Z,92.86
2023-02-08T08:14:36.545Z,92.82
2023-02-08T08:15:36.564Z,91.38
2023-02-08T08:16:36.578Z,90.16
2023-02-08T08:17:36.528Z,90.26
2023-02-08T08:18:36.509Z,90.79
2023-02-08T08:19:36.510Z,90.89
2023-02-08T08:20:36.519Z,91.42
2023-02-08T08:21:36.492Z,91.42
2023-02-08T08:22:36.485Z,91.49
2023-02-08T08:23:36.464Z,91.85
2023-02-08T08:24:36.466Z,91.95
2023-02-08T08:25:36.503Z,91.59
2023-02-08T08:26:36.454Z,91.70
2023-02-08T08:27:36.446Z,91.59
2023-02-08T08:28:36.461Z,91.28
2023-02-08T08:29:36.440Z,91.59
2023-02-08T08:30:36.453Z,91.38
2023-02-08T08:31:36.550Z,91.28
2023-02-08T08:32:36.397Z,91.49
2023-02-08T08:33:37.483Z,91.70
2023-02-08T08:34:36.388Z,92.02
2023-02-08T08:35:36.384Z,91.91
2023-02-08T08:36:36.401Z,92.02
2023-02-08T08:37:36.371Z,91.70
2023-02-08T08:38:36.367Z,91.70
2023-02-08T08:39:36.358Z,91.97
2023-02-08T08:40:36.345Z,91.41
2023-02-08T08:41:36.364Z,90.83
2023-02-08T08:42:36.332Z,90.67
2023-02-08T08:43:36.322Z,91.41
2023-02-08T08:44:36.361Z,91.89
2023-02-08T08:45:36.327Z,90.88
2023-02-08T08:46:36.366Z,91.51
2023-02-08T08:47:37.296Z,92.35
2023-02-08T08:48:36.289Z,92.21
2023-02-08T08:49:36.285Z,92.46
2023-02-08T08:50:36.273Z,92.35
2023-02-08T08:51:36.296Z,92.10
2023-02-08T08:52:36.273Z,92.16
2023-02-08T08:53:36.256Z,92.33
2023-02-08T08:54:36.244Z,91.22
2023-02-08T08:55:36.264Z,91.42
2023-02-08T08:56:36.257Z,91.22
2023-02-08T08:57:36.223Z,91.53
2023-02-08T08:58:37.240Z,91.64
2023-02-08T08:59:36.209Z,91.74
2023-02-08T09:00:36.204Z,91.96
2023-02-08T09:01:36.243Z,91.85
2023-02-08T09:02:36.186Z,92.54
2023-02-08T09:03:36.212Z,92.86
2023-02-08T09:04:36.169Z,92.40
2023-02-08T09:05:36.167Z,91.51
2023-02-08T09:06:36.177Z,92.10
2023-02-08T09:07:36.144Z,91.05
2023-02-08T09:08:36.164Z,91.64
2023-02-08T09:09:36.143Z,89.22
2023-02-08T09:10:36.159Z,87.96
2023-02-08T09:11:36.180Z,88.32
2023-02-08T09:12:36.176Z,88.80
2023-02-08T09:13:36.105Z,87.44
2023-02-08T09:14:36.094Z,88.00
2023-02-08T09:15:36.091Z,88.95
2023-02-08T09:16:36.101Z,87.79
2023-02-08T09:17:36.068Z,88.84
2023-02-08T09:18:36.070Z,91.16
2023-02-08T09:19:36.052Z,89.79
2023-02-08T09:20:36.043Z,89.62
2023-02-08T09:21:36.571Z,90.19
2023-02-08T09:22:36.035Z,91.09
2023-02-08T09:23:36.029Z,91.41
2023-02-08T09:24:36.028Z,91.78
2023-02-08T09:25:36.014Z,91.16
2023-02-08T09:26:36.046Z,91.22
2023-02-08T09:27:35.997Z,90.27
2023-02-08T09:28:35.989Z,89.39
2023-02-08T09:29:35.980Z,88.76
2023-02-08T09:30:35.991Z,88.87
2023-02-08T09:31:36.074Z,88.68
2023-02-08T09:32:35.958Z,87.71
2023-02-08T09:33:35.953Z,88.72
2023-02-08T09:34:35.946Z,88.51
2023-02-08T09:35:35.962Z,87.46
2023-02-08T09:36:35.960Z,87.46
2023-02-08T09:37:35.927Z,87.95
2023-02-08T09:38:35.921Z,88.62
2023-02-08T09:39:35.916Z,87.99
2023-02-08T09:40:35.915Z,87.82
2023-02-08T09:41:35.932Z,88.59
2023-02-08T09:42:35.906Z,89.81
2023-02-08T09:43:35.890Z,88.26
2023-02-08T09:44:35.874Z,87.21
2023-02-08T09:45:35.871Z,87.36
2023-02-08T09:46:35.913Z,86.06
2023-02-08T09:47:36.346Z,86.82
2023-02-08T09:48:36.854Z,86.82
2023-02-08T09:49:35.901Z,86.23
2023-02-08T09:50:35.847Z,85.66
2023-02-08T09:51:35.853Z,84.91
2023-02-08T09:52:35.820Z,85.71
2023-02-08T09:53:35.814Z,85.77
2023-02-08T09:54:35.809Z,84.86
2023-02-08T09:55:35.799Z,85.25
2023-02-08T09:56:35.820Z,85.49
2023-02-08T09:57:35.795Z,85.71
2023-02-08T09:58:35.779Z,85.88
2023-02-08T09:59:35.788Z,86.57
2023-02-08T10:00:35.822Z,85.27
2023-02-08T10:01:35.790Z,84.33
2023-02-08T10:02:35.753Z,84.58
2023-02-08T10:03:35.861Z,85.25
2023-02-08T10:04:35.737Z,85.49
2023-02-08T10:05:35.732Z,85.39
2023-02-08T10:06:35.760Z,85.71
2023-02-08T10:07:35.732Z,85.66
2023-02-08T10:08:35.812Z,85.73
2023-02-08T10:09:35.706Z,85.31
2023-02-08T10:10:35.699Z,85.63
2023-02-08T10:11:35.712Z,84.22
2023-02-08T10:12:35.710Z,83.70
2023-02-08T10:13:41.401Z,83.45
2023-02-08T10:14:37.664Z,82.97
2023-02-08T10:15:35.658Z,83.25
2023-02-08T10:16:35.748Z,84.46
2023-02-08T10:17:35.643Z,83.80
2023-02-08T10:18:35.634Z,82.86
2023-02-08T10:19:35.624Z,81.43
2023-02-08T10:20:35.626Z,81.15
2023-02-08T10:21:35.641Z,82.68
2023-02-08T10:22:35.598Z,82.71
2023-02-08T10:23:35.598Z,82.15
2023-02-08T10:24:35.584Z,79.50
2023-02-08T10:25:35.577Z,77.83
2023-02-08T10:26:35.714Z,78.46
2023-02-08T10:27:35.595Z,78.88
2023-02-08T10:28:35.620Z,78.11
2023-02-08T10:29:36.574Z,77.00
2023-02-08T10:30:35.556Z,78.39
2023-02-08T10:31:35.590Z,78.08
2023-02-08T10:32:35.568Z,77.14
2023-02-08T10:33:35.519Z,77.69
2023-02-08T10:34:35.503Z,76.68
2023-02-08T10:35:35.621Z,77.17
2023-02-08T10:36:35.491Z,77.20
2023-02-08T10:37:35.516Z,77.10
2023-02-08T10:38:45.986Z,78.95
2023-02-08T10:39:37.472Z,79.12
2023-02-08T10:40:35.474Z,77.24
2023-02-08T10:41:35.462Z,75.60
2023-02-08T10:42:35.477Z,76.16
2023-02-08T10:43:35.465Z,77.17
2023-02-08T10:44:35.445Z,77.87
2023-02-08T10:45:35.492Z,76.51
2023-02-08T10:46:35.413Z,75.71
2023-02-08T10:47:35.426Z,76.61
2023-02-08T10:48:35.393Z,75.95
2023-02-08T10:49:35.403Z,77.20
2023-02-08T10:50:35.394Z,76.96
2023-02-08T10:51:35.416Z,75.39
2023-02-08T10:52:35.425Z,74.66
2023-02-08T10:53:35.352Z,74.77
2023-02-08T10:54:35.360Z,76.12
2023-02-08T10:55:36.401Z,76.96
2023-02-08T10:56:36.336Z,76.96
2023-02-08T10:57:35.358Z,76.51
2023-02-08T10:58:35.344Z,75.74
2023-02-08T10:59:35.311Z,73.86
2023-02-08T11:00:35.370Z,72.89
2023-02-08T11:01:35.314Z,74.52
2023-02-08T11:02:35.328Z,73.72
2023-02-08T11:03:35.292Z,75.39
2023-02-08T11:04:35.315Z,75.50
2023-02-08T11:06:07.946Z,75.46
2023-02-08T11:06:35.264Z,72.85
2023-02-08T11:07:36.644Z,72.64
2023-02-08T11:08:36.366Z,73.41
2023-02-08T11:09:35.263Z,73.48
2023-02-08T11:10:35.233Z,72.64
2023-02-08T11:11:35.947Z,73.34
2023-02-08T11:12:35.269Z,72.30
2023-02-08T11:13:36.659Z,72.72
2023-02-08T11:14:46.346Z,73.41
2023-02-08T11:15:37.211Z,72.68
2023-02-08T11:16:35.257Z,72.68
2023-02-08T11:17:35.249Z,71.95
2023-02-08T11:18:35.167Z,72.58
2023-02-08T11:19:35.547Z,72.75
2023-02-08T11:20:36.169Z,72.06
2023-02-08T11:21:35.145Z,70.99
2023-02-08T11:22:35.136Z,69.40
2023-02-08T11:23:35.194Z,68.98
2023-02-08T11:24:35.126Z,68.04
2023-02-08T11:25:35.996Z,69.60
2023-02-08T11:26:36.126Z,69.29
2023-02-08T11:27:35.094Z,68.91
2023-02-08T11:28:35.122Z,67.64
2023-02-08T11:29:35.087Z,67.52
2023-02-08T11:30:35.122Z,69.43
2023-02-08T11:31:35.105Z,69.95
2023-02-08T11:32:35.065Z,69.04
2023-02-08T11:33:35.087Z,70.50
2023-02-08T11:34:35.045Z,70.40
2023-02-08T11:35:35.050Z,71.05
2023-02-08T11:36:35.097Z,70.43
2023-02-08T11:37:35.026Z,70.53
2023-02-08T11:38:35.076Z,69.70
2023-02-08T11:39:35.012Z,70.50
2023-02-08T11:40:35.012Z,69.87
2023-02-08T11:41:36.957Z,69.87
2023-02-08T11:42:35.034Z,69.87
2023-02-08T11:43:35.021Z,69.25
2023-02-08T11:44:34.980Z,70.05
2023-02-08T11:45:34.970Z,69.32
2023-02-08T11:46:34.990Z,70.02
2023-02-08T11:47:34.960Z,69.74
2023-02-08T11:48:34.976Z,68.08
2023-02-08T11:49:34.942Z,67.15
2023-02-08T11:50:34.930Z,68.37
2023-02-08T11:51:34.932Z,67.54
2023-02-08T11:52:34.912Z,66.64
2023-02-08T11:53:34.966Z,66.96
2023-02-08T11:54:34.900Z,65.47
2023-02-08T11:55:34.916Z,66.09
2023-02-08T11:56:34.896Z,65.58
2023-02-08T11:57:34.892Z,64.98
2023-02-08T11:58:34.897Z,65.53
2023-02-08T11:59:34.865Z,65.77
2023-02-08T12:00:34.869Z,65.90
2023-02-08T12:01:34.961Z,66.63
2023-02-08T12:02:34.861Z,67.39
2023-02-08T12:03:34.936Z,67.25
2023-02-08T12:04:34.833Z,67.36
2023-02-08T12:05:34.829Z,66.81
2023-02-08T12:06:34.825Z,67.30
2023-02-08T12:07:34.816Z,65.35
2023-02-08T12:08:34.832Z,64.94
2023-02-08T12:09:35.971Z,65.04
2023-02-08T12:10:34.788Z,65.20
2023-02-08T12:11:34.797Z,65.83
2023-02-08T12:12:34.775Z,66.00
2023-02-08T12:13:34.766Z,66.00
2023-02-08T12:14:34.779Z,65.20
2023-02-08T12:15:36.994Z,65.41
2023-02-08T12:16:35.798Z,63.72
2023-02-08T12:17:34.765Z,63.79
2023-02-08T12:18:34.760Z,63.79
2023-02-08T12:19:34.783Z,63.59
2023-02-08T12:20:34.733Z,63.69
2023-02-08T12:21:34.707Z,63.45
2023-02-08T12:22:34.702Z,64.36
2023-02-08T12:23:34.698Z,61.32
2023-02-08T12:24:34.711Z,60.15
2023-02-08T12:25:34.674Z,59.94
2023-02-08T12:26:34.707Z,59.71
2023-02-08T12:27:34.670Z,58.67
2023-02-08T12:28:34.683Z,57.22
2023-02-08T12:29:46.929Z,56.05
2023-02-08T12:30:36.659Z,57.30
2023-02-08T12:31:34.685Z,55.95
2023-02-08T12:32:34.627Z,54.73
2023-02-08T12:33:34.636Z,54.86
2023-02-08T12:34:34.633Z,55.79
2023-02-08T12:35:43.550Z,55.20
2023-02-08T12:36:36.618Z,56.03
2023-02-08T12:37:34.607Z,57.35
2023-02-08T12:38:34.567Z,56.93
2023-02-08T12:39:34.592Z,55.66
2023-02-08T12:40:34.558Z,54.83
2023-02-08T12:41:34.551Z,54.91
2023-02-08T12:42:34.540Z,55.43
2023-02-08T12:43:34.536Z,55.46
2023-02-08T12:44:34.565Z,55.22
2023-02-08T12:45:34.523Z,55.43
2023-02-08T12:46:34.558Z,54.99
2023-02-08T12:47:34.508Z,54.79
2023-02-08T12:48:34.528Z,55.07
2023-02-08T12:49:34.515Z,54.97
2023-02-08T12:50:34.496Z,53.52
2023-02-08T12:51:34.489Z,54.47
2023-02-08T12:52:34.462Z,55.51
2023-02-08T12:53:34.464Z,55.10